Terminal Aerodrome Forecast
Issued by NWS Goodland, KS

Home | Current Version | Previous Version | Text Only | Print | Product List | Glossary On
Versions: 1 2 3 4 5 6 7 8 9 10 11 12 13 14 15 16 17 18 19 20 21 22 23 24 25
000
FTUS43 KGLD 191120
TAFGLD
TAF
KGLD 191120Z 1912/2012 35020G30KT 6SM -RA BR SCT006 OVC015
      TEMPO 1912/1915 OVC025
     FM191500 35026G38KT P6SM OVC030
     FM191800 35027G40KT P6SM SCT070
     FM200100 34012KT P6SM SKC
     FM200600 31006KT P6SM SKC=

USA.gov is the U.S. government's official web portal to all federal, state and local government web resources and services.